Time;durP1;ratioP1;P1;durP2;ratioP2;P2;SDS_P1;SDS_P2;PMS_P1;PMS_P2;Temp;Humidity;BMP_temperature;BMP_pressure;BME280_temperature;BME280_humidity;BME280_pressure;Samples;Min_cycle;Max_cycle;Signal;HPM_P1;HPM_P2
2022/12/08 00:01:43;;;;;;;24.80;17.97;;;1.20;95.90;;;;;;4976755;28;20275;-91
2022/12/08 00:04:09;;;;;;;18.27;14.33;;;1.20;95.90;;;;;;4977480;28;20236;-92
2022/12/08 00:09:24;;;;;;;22.97;18.83;;;1.20;95.90;;;;;;4995029;28;20228;-92
2022/12/08 00:11:56;;;;;;;22.73;18.13;;;1.30;95.90;;;;;;4984309;28;20204;-92
2022/12/08 00:14:30;;;;;;;22.17;17.37;;;1.30;95.80;;;;;;4976657;28;20288;-92
2022/12/08 00:16:57;;;;;;;22.80;17.47;;;1.30;95.90;;;;;;4979067;28;20170;-91
2022/12/08 00:19:23;;;;;;;19.00;16.80;;;1.30;95.90;;;;;;4977181;28;20181;-91
2022/12/08 00:21:50;;;;;;;25.53;18.13;;;1.40;95.80;;;;;;4977561;28;20231;-92
2022/12/08 00:24:16;;;;;;;21.63;18.10;;;1.40;95.80;;;;;;4977616;28;20197;-93
2022/12/08 00:26:42;;;;;;;21.13;17.63;;;1.40;95.80;;;;;;4980764;28;20190;-92
2022/12/08 00:29:08;;;;;;;20.07;17.00;;;1.40;95.80;;;;;;4980157;28;20181;-93
2022/12/08 00:31:33;;;;;;;22.90;19.33;;;1.50;95.80;;;;;;4978183;28;20702;-93
2022/12/08 00:33:59;;;;;;;29.00;17.83;;;1.40;95.70;;;;;;4977414;28;20194;-92
2022/12/08 00:36:25;;;;;;;19.67;16.93;;;1.50;95.80;;;;;;4976908;28;20197;-92
2022/12/08 00:38:51;;;;;;;20.27;16.43;;;1.50;95.80;;;;;;4980992;28;20181;-94
2022/12/08 00:42:10;;;;;;;20.77;17.70;;;1.50;95.70;;;;;;4984103;28;20182;-94
2022/12/08 00:44:06;;;;;;;22.93;16.83;;;1.50;95.70;;;;;;5003204;28;20206;-94
2022/12/08 00:46:32;;;;;;;26.93;17.60;;;1.60;95.70;;;;;;4989121;28;20182;-93
2022/12/08 00:48:57;;;;;;;27.33;18.03;;;1.60;95.70;;;;;;4991035;28;20188;-94
2022/12/08 00:51:23;;;;;;;25.73;18.00;;;1.60;95.70;;;;;;4995617;28;20216;-94
2022/12/08 00:53:49;;;;;;;26.10;18.30;;;1.60;95.70;;;;;;4996977;28;20204;-94
2022/12/08 00:56:14;;;;;;;18.87;16.87;;;1.60;95.70;;;;;;4982411;28;20185;-93
2022/12/08 00:58:40;;;;;;;20.40;16.60;;;1.70;95.70;;;;;;4982148;28;20182;-94
2022/12/08 01:01:13;;;;;;;24.17;16.67;;;1.70;95.70;;;;;;4982381;28;20623;-93
2022/12/08 01:03:39;;;;;;;18.90;15.90;;;1.70;95.60;;;;;;4979276;28;20213;-92
2022/12/08 01:06:06;;;;;;;18.07;14.77;;;1.70;95.60;;;;;;4980558;28;20196;-93
2022/12/08 01:08:32;;;;;;;20.30;16.37;;;1.70;95.60;;;;;;4982953;28;20636;-93
2022/12/08 01:11:03;;;;;;;17.67;14.70;;;1.70;95.60;;;;;;4979965;28;20206;-93
2022/12/08 01:13:29;;;;;;;20.47;16.93;;;1.70;95.60;;;;;;4978660;28;20202;-92
2022/12/08 01:15:54;;;;;;;24.07;15.83;;;1.80;95.60;;;;;;4978479;28;20205;-93
2022/12/08 01:18:20;;;;;;;20.50;15.13;;;1.80;95.60;;;;;;4977197;28;20544;-93
2022/12/08 01:20:45;;;;;;;19.60;15.10;;;1.80;95.60;;;;;;4979044;28;20177;-92
2022/12/08 01:23:14;;;;;;;34.03;21.30;;;1.80;95.60;;;;;;4989343;28;20166;-93
2022/12/08 01:25:40;;;;;;;23.00;16.50;;;1.90;95.60;;;;;;4990527;28;20170;-93
2022/12/08 01:28:05;;;;;;;17.07;15.30;;;1.90;95.50;;;;;;4985932;28;20189;-93
2022/12/08 01:30:31;;;;;;;20.20;15.03;;;1.90;95.50;;;;;;4985518;28;20269;-93
2022/12/08 01:32:57;;;;;;;14.80;12.87;;;1.90;95.50;;;;;;4984173;28;20677;-92
2022/12/08 01:35:23;;;;;;;11.70;10.53;;;1.80;95.40;;;;;;4984849;28;20196;-93
2022/12/08 01:37:49;;;;;;;12.73;11.43;;;1.80;95.40;;;;;;4990403;28;20632;-93
2022/12/08 01:40:16;;;;;;;14.90;13.07;;;1.60;95.30;;;;;;4969889;28;20220;-93
2022/12/08 01:42:41;;;;;;;14.90;12.17;;;1.50;95.30;;;;;;4980794;28;20174;-93
2022/12/08 01:45:23;;;;;;;13.87;12.47;;;1.50;95.30;;;;;;4979999;28;20197;-92
2022/12/08 01:47:51;;;;;;;15.43;12.07;;;1.50;95.30;;;;;;4980009;28;20193;-92
2022/12/08 01:50:19;;;;;;;14.17;11.83;;;1.50;95.30;;;;;;4979734;28;20185;-91
2022/12/08 01:52:58;;;;;;;12.77;11.53;;;1.60;95.40;;;;;;4979422;28;20200;-92
2022/12/08 01:55:29;;;;;;;14.87;13.07;;;1.60;95.40;;;;;;4979315;28;20178;-92
2022/12/08 01:57:59;;;;;;;13.37;11.90;;;1.60;95.40;;;;;;4979308;28;20174;-92
2022/12/08 02:00:25;;;;;;;14.70;12.60;;;1.70;95.40;;;;;;4979511;28;20229;-93
2022/12/08 02:02:58;;;;;;;14.77;12.83;;;1.70;95.40;;;;;;4979286;28;20175;-93
2022/12/08 02:05:27;;;;;;;13.33;12.03;;;1.70;95.40;;;;;;4979390;28;20178;-92
2022/12/08 02:07:54;;;;;;;10.97;9.90;;;1.80;95.40;;;;;;4979046;28;20209;-92
2022/12/08 02:10:21;;;;;;;15.50;11.43;;;1.70;95.40;;;;;;4978922;28;20182;-92
2022/12/08 02:12:49;;;;;;;13.43;11.53;;;1.80;95.40;;;;;;4979475;28;20178;-92
2022/12/08 02:15:15;;;;;;;13.77;11.37;;;1.80;95.40;;;;;;4978988;28;20208;-92
2022/12/08 02:18:01;;;;;;;13.23;10.40;;;1.80;95.40;;;;;;4980073;28;20691;-92
2022/12/08 02:20:49;;;;;;;12.57;11.23;;;1.80;95.40;;;;;;4978958;28;20187;-92
2022/12/08 02:23:26;;;;;;;11.50;9.93;;;1.80;95.40;;;;;;4978900;28;20217;-92
2022/12/08 02:26:13;;;;;;;12.47;10.70;;;1.80;95.40;;;;;;4979439;28;20263;-92
2022/12/08 02:28:45;;;;;;;12.70;10.90;;;1.80;95.40;;;;;;4978846;28;20174;-93
2022/12/08 02:31:41;;;;;;;14.57;11.80;;;1.90;95.30;;;;;;4978367;28;20221;-91
2022/12/08 02:34:22;;;;;;;11.40;10.40;;;1.90;95.30;;;;;;4978434;28;20197;-92
2022/12/08 02:37:02;;;;;;;12.80;10.97;;;1.90;95.40;;;;;;4978457;28;20185;-92
2022/12/08 02:39:49;;;;;;;13.50;10.33;;;1.90;95.30;;;;;;4979422;28;20170;-92
2022/12/08 02:42:24;;;;;;;13.53;10.13;;;2.00;95.30;;;;;;4978577;28;20193;-92
2022/12/08 02:45:13;;;;;;;10.37;9.40;;;2.00;95.20;;;;;;4978332;28;20202;-92
2022/12/08 02:47:39;;;;;;;10.13;9.10;;;2.00;95.10;;;;;;4978632;28;20182;-93
2022/12/08 02:50:06;;;;;;;10.40;9.37;;;2.00;95.10;;;;;;4978310;28;20183;-92
2022/12/08 02:52:32;;;;;;;11.63;9.30;;;2.00;95.00;;;;;;4978342;28;20223;-93
2022/12/08 02:55:07;;;;;;;10.63;9.63;;;2.00;95.00;;;;;;4978382;28;20695;-92
2022/12/08 02:57:47;;;;;;;8.03;7.33;;;2.00;94.90;;;;;;4978998;28;20169;-92
2022/12/08 03:00:21;;;;;;;9.50;8.60;;;2.00;94.90;;;;;;4978115;28;20188;-92
2022/12/08 03:03:04;;;;;;;6.97;6.37;;;1.90;94.80;;;;;;4978192;28;20166;-92
2022/12/08 03:05:52;;;;;;;8.00;7.40;;;1.90;94.80;;;;;;4978008;28;20170;-91
2022/12/08 03:08:23;;;;;;;8.10;7.40;;;1.80;94.70;;;;;;4977804;28;20178;-92
2022/12/08 03:11:19;;;;;;;8.90;7.83;;;1.80;94.70;;;;;;4977793;28;20224;-92
2022/12/08 03:13:50;;;;;;;8.40;7.73;;;1.80;94.70;;;;;;4977791;28;20679;-92
2022/12/08 03:16:21;;;;;;;9.67;8.87;;;1.80;94.60;;;;;;4977658;28;20170;-92
2022/12/08 03:18:51;;;;;;;9.63;7.73;;;1.70;94.60;;;;;;4977860;28;20170;-92
2022/12/08 03:21:19;;;;;;;8.83;8.00;;;1.70;94.60;;;;;;4977699;28;20235;-92
2022/12/08 03:23:46;;;;;;;9.13;8.17;;;1.80;94.70;;;;;;4977723;28;20659;-91
2022/12/08 03:26:34;;;;;;;8.80;8.10;;;1.70;94.70;;;;;;4978431;28;20178;-92
2022/12/08 03:29:00;;;;;;;7.80;7.17;;;1.80;94.60;;;;;;4977620;28;20647;-92
2022/12/08 03:31:31;;;;;;;8.80;8.00;;;1.80;94.60;;;;;;4977258;28;20248;-92
2022/12/08 03:33:59;;;;;;;8.67;7.77;;;1.80;94.60;;;;;;4977511;28;20196;-92
2022/12/08 03:36:25;;;;;;;8.00;7.23;;;1.80;94.60;;;;;;4977436;28;20232;-92
2022/12/08 03:38:52;;;;;;;8.33;7.47;;;1.70;94.60;;;;;;4977376;28;20177;-92
2022/12/08 03:41:20;;;;;;;8.97;8.17;;;1.80;94.60;;;;;;4977411;28;20215;-92
2022/12/08 03:43:46;;;;;;;8.47;7.77;;;1.70;94.50;;;;;;4976611;28;20201;-92
2022/12/08 03:46:11;;;;;;;7.67;7.07;;;1.70;94.60;;;;;;4977325;28;20182;-92
2022/12/08 03:48:37;;;;;;;8.53;7.83;;;1.70;94.60;;;;;;4977242;28;20182;-92
2022/12/08 03:51:03;;;;;;;8.37;7.67;;;1.80;94.60;;;;;;4977420;28;20218;-92
2022/12/08 03:53:28;;;;;;;8.10;7.40;;;1.80;94.60;;;;;;4977912;28;20332;-92
2022/12/08 03:55:54;;;;;;;8.50;7.47;;;1.80;94.60;;;;;;4977089;28;20209;-92
2022/12/08 03:58:19;;;;;;;8.47;7.77;;;1.80;94.50;;;;;;4977159;28;20261;-92
2022/12/08 04:00:45;;;;;;;8.30;7.67;;;1.80;94.50;;;;;;4977173;28;20178;-92
2022/12/08 04:03:10;;;;;;;8.60;7.90;;;1.80;94.60;;;;;;4977117;28;20719;-92
2022/12/08 04:05:36;;;;;;;7.70;7.07;;;1.80;94.60;;;;;;4977148;28;20219;-91
2022/12/08 04:08:01;;;;;;;8.83;8.13;;;1.80;94.60;;;;;;4976996;28;20178;-91
2022/12/08 04:10:27;;;;;;;8.30;7.63;;;1.80;94.60;;;;;;4976750;28;20181;-92
2022/12/08 04:12:52;;;;;;;7.80;7.20;;;1.80;94.60;;;;;;4976806;28;20690;-92
2022/12/08 04:15:18;;;;;;;7.50;6.90;;;1.80;94.60;;;;;;4976983;28;20748;-92
2022/12/08 04:17:43;;;;;;;6.53;6.03;;;1.80;94.60;;;;;;4976786;28;20540;-92
2022/12/08 04:20:09;;;;;;;6.47;6.07;;;1.70;94.60;;;;;;4976763;28;20271;-92
2022/12/08 04:22:35;;;;;;;6.03;5.63;;;1.70;94.60;;;;;;4976807;28;20207;-92
2022/12/08 04:25:01;;;;;;;5.90;5.50;;;1.70;94.60;;;;;;4976634;28;20197;-92
2022/12/08 04:27:26;;;;;;;7.00;6.33;;;1.60;94.60;;;;;;4976754;28;20178;-92
2022/12/08 04:29:52;;;;;;;6.63;6.13;;;1.60;94.60;;;;;;4976777;28;20181;-92
2022/12/08 04:32:17;;;;;;;6.57;6.13;;;1.60;94.70;;;;;;4976470;28;20206;-92
2022/12/08 04:34:43;;;;;;;6.10;5.70;;;1.60;94.70;;;;;;4976495;28;20250;-91
2022/12/08 04:37:08;;;;;;;7.10;6.60;;;1.60;94.70;;;;;;4976990;28;20182;-92
2022/12/08 04:39:34;;;;;;;5.30;5.00;;;1.60;94.70;;;;;;4977165;28;20177;-92
2022/12/08 04:41:59;;;;;;;5.27;4.93;;;1.50;94.70;;;;;;4976683;28;20184;-91
2022/12/08 04:44:25;;;;;;;5.50;5.20;;;1.50;94.60;;;;;;4976786;28;20200;-92
2022/12/08 04:46:50;;;;;;;5.60;5.20;;;1.60;94.60;;;;;;4976770;28;20595;-92
2022/12/08 04:49:16;;;;;;;5.10;4.80;;;1.60;94.60;;;;;;4976598;28;20266;-92
2022/12/08 04:51:41;;;;;;;5.37;5.07;;;1.60;94.40;;;;;;4976506;28;20583;-92
2022/12/08 04:54:07;;;;;;;5.37;4.97;;;1.60;94.40;;;;;;4977865;28;20209;-92
2022/12/08 04:56:33;;;;;;;5.60;5.20;;;1.60;94.40;;;;;;4980237;28;20269;-92
2022/12/08 04:58:58;;;;;;;5.27;4.97;;;1.60;94.40;;;;;;4980382;28;20182;-92
2022/12/08 05:01:24;;;;;;;5.80;5.40;;;1.50;94.30;;;;;;4980297;28;20185;-91
2022/12/08 05:03:49;;;;;;;5.30;5.00;;;1.60;94.40;;;;;;4979958;28;20218;-92
2022/12/08 05:06:15;;;;;;;5.23;4.93;;;1.50;94.40;;;;;;4980061;28;20184;-91
2022/12/08 05:08:41;;;;;;;5.00;4.70;;;1.50;94.50;;;;;;4980112;28;20746;-91
2022/12/08 05:11:09;;;;;;;5.43;5.10;;;1.50;94.50;;;;;;4980543;28;20207;-91
2022/12/08 05:13:34;;;;;;;5.90;5.50;;;1.40;94.50;;;;;;4979820;28;20201;-92
2022/12/08 05:16:09;;;;;;;5.87;5.47;;;1.50;94.50;;;;;;4980221;28;20177;-92
2022/12/08 05:18:35;;;;;;;5.30;4.90;;;1.50;94.60;;;;;;4979837;28;20259;-91
2022/12/08 05:21:01;;;;;;;5.27;4.87;;;1.50;94.60;;;;;;4979971;28;20213;-92
2022/12/08 05:23:27;;;;;;;4.60;4.30;;;1.60;94.60;;;;;;4979715;28;20202;-92
2022/12/08 05:25:52;;;;;;;4.40;4.20;;;1.60;94.60;;;;;;4979873;28;20201;-92
2022/12/08 05:28:18;;;;;;;4.30;4.10;;;1.60;94.60;;;;;;4979689;28;20602;-92
2022/12/08 05:30:43;;;;;;;4.20;4.00;;;1.60;94.50;;;;;;4980643;28;20202;-91
2022/12/08 05:33:09;;;;;;;4.10;3.90;;;1.60;94.50;;;;;;4979469;28;20236;-91
2022/12/08 05:35:34;;;;;;;4.50;4.30;;;1.60;94.50;;;;;;4979600;28;20228;-92
2022/12/08 05:38:00;;;;;;;4.53;4.23;;;1.60;94.50;;;;;;4979774;28;20235;-92
2022/12/08 05:40:26;;;;;;;5.30;5.00;;;1.60;94.50;;;;;;4979643;28;20184;-91
2022/12/08 05:42:52;;;;;;;6.00;5.60;;;1.60;94.50;;;;;;4979566;28;20216;-91
2022/12/08 05:45:17;;;;;;;7.37;6.13;;;1.70;94.50;;;;;;4980142;28;20194;-91
2022/12/08 05:47:43;;;;;;;6.70;6.10;;;1.60;94.50;;;;;;4979288;28;20702;-91
2022/12/08 05:50:09;;;;;;;7.40;6.90;;;1.60;94.50;;;;;;4979727;28;20178;-92
2022/12/08 05:52:34;;;;;;;8.03;7.43;;;1.60;94.50;;;;;;4979532;28;20210;-92
2022/12/08 05:55:01;;;;;;;7.80;7.10;;;1.60;94.50;;;;;;4979190;28;20248;-92
2022/12/08 05:57:26;;;;;;;7.73;7.13;;;1.60;94.50;;;;;;4979731;28;20184;-91
2022/12/08 05:59:52;;;;;;;8.77;8.07;;;1.60;94.50;;;;;;4979324;28;20185;-91
2022/12/08 06:02:18;;;;;;;8.70;8.00;;;1.60;94.60;;;;;;4980504;28;20183;-91
2022/12/08 06:04:43;;;;;;;15.47;9.73;;;1.70;94.60;;;;;;4978990;28;20205;-91
2022/12/08 06:07:09;;;;;;;10.63;8.83;;;1.60;94.60;;;;;;4978569;28;20234;-91
2022/12/08 06:09:34;;;;;;;10.97;9.87;;;1.60;94.70;;;;;;4979471;28;20186;-91
2022/12/08 06:12:00;;;;;;;10.10;9.20;;;1.60;94.70;;;;;;4979105;28;20210;-91
2022/12/08 06:14:26;;;;;;;11.00;9.97;;;1.60;94.80;;;;;;4979319;28;20264;-92
2022/12/08 06:16:52;;;;;;;10.23;9.23;;;1.60;94.80;;;;;;4979153;28;20590;-91
2022/12/08 06:19:17;;;;;;;10.57;9.73;;;1.60;94.80;;;;;;4978762;28;20201;-91
2022/12/08 06:21:43;;;;;;;10.37;9.43;;;1.50;94.90;;;;;;4978618;28;20195;-91
2022/12/08 06:24:09;;;;;;;12.43;11.33;;;1.60;94.90;;;;;;4978762;28;20231;-91
2022/12/08 06:26:34;;;;;;;13.07;11.70;;;1.60;94.90;;;;;;4978801;28;20184;-91
2022/12/08 06:29:00;;;;;;;13.60;10.90;;;1.60;94.90;;;;;;4978784;28;20206;-91
2022/12/08 06:31:29;;;;;;;13.70;12.43;;;1.50;94.90;;;;;;4978852;28;20797;-91
2022/12/08 06:33:55;;;;;;;12.20;11.10;;;1.50;95.00;;;;;;4996315;28;20241;-91
2022/12/08 06:36:24;;;;;;;13.20;12.00;;;1.50;95.00;;;;;;4979265;28;20706;-91
2022/12/08 06:38:50;;;;;;;13.00;11.90;;;1.40;95.00;;;;;;4978672;28;20271;-91
2022/12/08 06:41:16;;;;;;;11.70;10.60;;;1.50;95.10;;;;;;4979281;28;20265;-91
2022/12/08 06:43:42;;;;;;;12.43;11.33;;;1.50;95.10;;;;;;4978515;28;20566;-91
2022/12/08 06:46:11;;;;;;;12.50;11.40;;;1.40;95.10;;;;;;4978697;28;20180;-91
2022/12/08 06:48:37;;;;;;;13.50;12.07;;;1.50;95.10;;;;;;4978424;28;20176;-92
2022/12/08 06:51:11;;;;;;;12.60;11.47;;;1.40;95.10;;;;;;4978358;28;20221;-92
2022/12/08 06:53:37;;;;;;;14.37;12.07;;;1.50;95.20;;;;;;4978496;28;20190;-92
2022/12/08 06:56:03;;;;;;;13.70;12.47;;;1.40;95.10;;;;;;4978324;28;20177;-92
2022/12/08 06:58:28;;;;;;;17.33;12.40;;;1.40;95.20;;;;;;4978493;28;20200;-91
2022/12/08 07:00:54;;;;;;;13.30;11.90;;;1.40;95.20;;;;;;4978394;28;20181;-92
2022/12/08 07:03:20;;;;;;;14.27;12.87;;;1.30;95.20;;;;;;4978034;28;20201;-92
2022/12/08 07:05:45;;;;;;;13.53;12.23;;;1.20;95.20;;;;;;4978324;28;20189;-92
2022/12/08 07:08:11;;;;;;;14.47;13.07;;;1.20;95.20;;;;;;4978225;28;20535;-92
2022/12/08 07:10:38;;;;;;;15.17;13.57;;;1.10;95.20;;;;;;4978680;28;20185;-92
2022/12/08 07:13:04;;;;;;;14.53;11.90;;;1.10;95.20;;;;;;4978880;28;20240;-92
2022/12/08 07:15:30;;;;;;;14.23;12.83;;;1.10;95.30;;;;;;4978009;28;20212;-92
2022/12/08 07:18:22;;;;;;;14.80;13.40;;;1.20;95.30;;;;;;4977466;28;20188;-92
2022/12/08 07:20:47;;;;;;;14.53;13.13;;;1.10;95.30;;;;;;4972633;28;20194;-92
2022/12/08 07:23:13;;;;;;;13.73;12.10;;;1.20;95.30;;;;;;4977955;28;20220;-92
2022/12/08 07:26:39;;;;;;;12.10;10.93;;;1.10;95.30;;;;;;4977755;28;20200;-92
2022/12/08 07:32:15;;;;;;;14.33;12.83;;;1.10;95.40;;;;;;4963760;28;20769;-92
2022/12/08 07:34:55;;;;;;;12.93;11.53;;;1.10;95.50;;;;;;4958189;28;20194;-92
2022/12/08 07:37:21;;;;;;;13.47;11.73;;;1.20;95.50;;;;;;4968867;28;20284;-92
2022/12/08 07:39:46;;;;;;;12.30;11.13;;;1.20;95.50;;;;;;4978326;28;20236;-93
2022/12/08 07:42:12;;;;;;;11.77;10.67;;;1.20;95.50;;;;;;4977721;28;20178;-93
2022/12/08 07:44:37;;;;;;;11.97;10.77;;;1.20;95.50;;;;;;4978135;28;20826;-93
2022/12/08 07:47:03;;;;;;;11.67;10.57;;;1.20;95.50;;;;;;4977610;28;20181;-93
2022/12/08 07:49:29;;;;;;;11.17;10.07;;;1.10;95.60;;;;;;4978058;28;20189;-92
2022/12/08 07:51:54;;;;;;;15.27;11.40;;;1.10;95.50;;;;;;4977734;28;20244;-92
2022/12/08 07:54:23;;;;;;;11.10;10.07;;;1.10;95.60;;;;;;4977405;28;20251;-92
2022/12/08 07:56:48;;;;;;;11.57;10.47;;;1.20;95.60;;;;;;4977683;28;20189;-93
2022/12/08 07:59:23;;;;;;;15.13;11.50;;;1.20;95.60;;;;;;4977507;28;20229;-93
2022/12/08 08:01:50;;;;;;;11.93;10.67;;;1.20;95.60;;;;;;4978333;28;20181;-93
2022/12/08 08:04:16;;;;;;;12.87;11.37;;;1.20;95.60;;;;;;4977245;28;20204;-93
2022/12/08 08:06:42;;;;;;;15.20;10.93;;;1.20;95.60;;;;;;4977215;28;20178;-92
2022/12/08 08:09:08;;;;;;;12.27;10.87;;;1.20;95.60;;;;;;4977212;28;20183;-92
2022/12/08 08:11:34;;;;;;;12.30;11.13;;;1.20;95.70;;;;;;4976947;28;20232;-93
2022/12/08 08:14:00;;;;;;;13.07;11.77;;;1.20;95.70;;;;;;4977387;28;20228;-93
2022/12/08 08:16:25;;;;;;;12.60;11.30;;;1.30;95.60;;;;;;4977517;28;20177;-93
2022/12/08 08:18:51;;;;;;;14.50;11.20;;;1.20;95.60;;;;;;4977777;28;20647;-93
2022/12/08 08:21:17;;;;;;;11.57;10.37;;;1.20;95.60;;;;;;4977985;28;20182;-93
2022/12/08 08:23:43;;;;;;;12.33;11.23;;;1.10;95.60;;;;;;4978608;28;20208;-94
2022/12/08 08:26:08;;;;;;;11.20;10.17;;;1.00;95.60;;;;;;4980857;28;20184;-93
2022/12/08 08:28:34;;;;;;;12.13;11.03;;;1.00;95.60;;;;;;4984012;28;20191;-94
2022/12/08 08:31:00;;;;;;;12.67;10.13;;;0.80;95.50;;;;;;4987587;28;20197;-94
2022/12/08 08:33:26;;;;;;;11.70;10.50;;;0.90;95.60;;;;;;4986944;28;20265;-94
2022/12/08 08:35:53;;;;;;;11.47;10.37;;;0.90;95.60;;;;;;4987286;28;20217;-94
2022/12/08 08:38:18;;;;;;;11.23;10.13;;;0.90;95.60;;;;;;4987129;28;20185;-93
2022/12/08 08:40:44;;;;;;;11.03;10.03;;;0.90;95.60;;;;;;4988365;28;20241;-93
2022/12/08 08:43:27;;;;;;;10.93;9.93;;;1.10;95.60;;;;;;4987863;28;20186;-94
2022/12/08 08:45:54;;;;;;;9.33;8.53;;;1.10;95.60;;;;;;4987801;28;20248;-94
2022/12/08 08:48:20;;;;;;;9.50;8.70;;;1.10;95.60;;;;;;4988520;28;20192;-94
2022/12/08 08:50:45;;;;;;;9.60;8.80;;;1.20;95.60;;;;;;4986765;28;20265;-94
2022/12/08 08:53:11;;;;;;;10.07;9.23;;;1.20;95.60;;;;;;4987820;28;20174;-94
2022/12/08 08:55:38;;;;;;;9.03;8.33;;;1.20;95.60;;;;;;4989161;28;20184;-94
2022/12/08 08:58:03;;;;;;;8.83;8.10;;;1.20;95.50;;;;;;4988322;28;20215;-94
2022/12/08 09:00:29;;;;;;;9.63;8.80;;;1.10;95.50;;;;;;4984744;28;20182;-90
2022/12/08 09:02:54;;;;;;;9.60;8.80;;;1.10;95.50;;;;;;4997215;28;20174;-90
2022/12/08 09:05:20;;;;;;;9.17;8.47;;;1.10;95.50;;;;;;4979746;28;20186;-90
2022/12/08 09:07:45;;;;;;;9.47;8.67;;;1.10;95.50;;;;;;4997482;28;20182;-91
2022/12/08 09:10:11;;;;;;;9.17;8.40;;;1.10;95.50;;;;;;4984685;28;20201;-94
2022/12/08 09:12:37;;;;;;;9.47;8.67;;;1.00;95.50;;;;;;4995678;28;20226;-94
2022/12/08 09:15:03;;;;;;;10.00;8.93;;;0.80;95.40;;;;;;4994242;28;20198;-94
2022/12/08 09:17:28;;;;;;;10.87;9.87;;;0.80;95.50;;;;;;4990767;28;20184;-91
2022/12/08 09:19:54;;;;;;;10.20;9.30;;;0.70;95.50;;;;;;4999139;28;20181;-93
2022/12/08 09:22:20;;;;;;;10.50;9.40;;;0.80;95.60;;;;;;4983671;28;20186;-93
2022/12/08 09:24:46;;;;;;;10.73;9.77;;;0.80;95.50;;;;;;4989311;28;20328;-93
2022/12/08 09:27:11;;;;;;;10.77;9.70;;;0.80;95.50;;;;;;4982621;28;20194;-93
2022/12/08 09:29:37;;;;;;;11.63;10.53;;;0.90;95.50;;;;;;4982952;28;20174;-93
2022/12/08 09:32:06;;;;;;;11.03;10.00;;;0.90;95.50;;;;;;4984445;28;20300;-92
2022/12/08 09:34:31;;;;;;;11.27;10.27;;;0.90;95.50;;;;;;4984075;28;20193;-90
2022/12/08 09:37:02;;;;;;;11.40;10.20;;;0.90;95.50;;;;;;4997545;28;20181;-93
2022/12/08 09:39:28;;;;;;;11.73;10.67;;;1.00;95.50;;;;;;4981434;28;20636;-92
2022/12/08 09:42:05;;;;;;;12.00;10.80;;;0.90;95.50;;;;;;4979338;28;20185;-92
2022/12/08 09:44:43;;;;;;;11.90;10.77;;;0.90;95.50;;;;;;4980006;28;20277;-92
2022/12/08 09:47:39;;;;;;;11.93;10.53;;;1.00;95.50;;;;;;4979887;28;20180;-92
2022/12/08 09:50:19;;;;;;;11.77;10.67;;;1.00;95.50;;;;;;4980615;28;20184;-92
2022/12/08 09:52:55;;;;;;;10.83;9.83;;;1.00;95.50;;;;;;4980907;28;20308;-92
2022/12/08 09:55:36;;;;;;;11.67;10.47;;;1.00;95.40;;;;;;4980014;28;20648;-92
2022/12/08 09:58:03;;;;;;;11.23;10.17;;;1.00;95.50;;;;;;4980497;28;20182;-92
2022/12/08 10:00:29;;;;;;;11.37;10.30;;;1.00;95.40;;;;;;4980569;28;20232;-92
2022/12/08 10:02:59;;;;;;;15.40;10.70;;;1.00;95.40;;;;;;4980886;28;20176;-92
2022/12/08 10:05:26;;;;;;;11.40;10.30;;;1.10;95.40;;;;;;4981027;28;20176;-92
2022/12/08 10:08:04;;;;;;;13.33;12.03;;;1.10;95.40;;;;;;4981521;28;20170;-93
2022/12/08 10:10:52;;;;;;;12.73;11.53;;;1.10;95.40;;;;;;4981458;28;20173;-92
2022/12/08 10:13:23;;;;;;;12.27;11.07;;;1.10;95.40;;;;;;4981519;28;20214;-92
2022/12/08 10:16:14;;;;;;;12.30;11.10;;;1.10;95.40;;;;;;4981082;28;20177;-92
2022/12/08 10:18:40;;;;;;;11.53;10.53;;;1.20;95.40;;;;;;4980167;28;20178;-91
2022/12/08 10:21:19;;;;;;;11.90;10.80;;;1.20;95.40;;;;;;4980465;28;20616;-92
2022/12/08 10:23:50;;;;;;;11.00;10.00;;;1.20;95.40;;;;;;4982488;28;20232;-92
2022/12/08 10:26:19;;;;;;;11.37;10.27;;;1.20;95.40;;;;;;4979583;28;20186;-92
2022/12/08 10:28:44;;;;;;;11.23;10.10;;;1.20;95.40;;;;;;4978904;28;20552;-91
2022/12/08 10:31:24;;;;;;;12.60;10.10;;;1.20;95.40;;;;;;4996438;28;20202;-92
2022/12/08 10:34:10;;;;;;;9.63;8.83;;;1.20;95.40;;;;;;4978527;28;20205;-92
2022/12/08 10:36:51;;;;;;;9.90;9.00;;;1.20;95.30;;;;;;4978667;28;20204;-92
2022/12/08 10:39:44;;;;;;;10.50;9.50;;;1.20;95.40;;;;;;4978668;28;20200;-91
2022/12/08 10:42:13;;;;;;;11.57;10.43;;;1.30;95.30;;;;;;4961017;28;20197;-94
2022/12/08 10:45:07;;;;;;;11.40;10.20;;;1.40;95.40;;;;;;4980129;28;20212;-93
2022/12/08 10:47:38;;;;;;;11.43;10.33;;;1.40;95.40;;;;;;4983284;28;20190;-93
2022/12/08 10:50:20;;;;;;;11.70;10.50;;;1.40;95.30;;;;;;4982883;28;20185;-94
2022/12/08 10:52:55;;;;;;;11.33;10.30;;;1.40;95.30;;;;;;4981156;28;20213;-93
2022/12/08 10:55:21;;;;;;;10.93;9.83;;;1.40;95.30;;;;;;4980902;28;20193;-93
2022/12/08 10:57:49;;;;;;;11.20;10.10;;;1.40;95.30;;;;;;4983876;28;20632;-93
2022/12/08 11:00:19;;;;;;;11.07;10.07;;;1.40;95.30;;;;;;4989468;28;20186;-94
2022/12/08 11:03:00;;;;;;;11.80;10.70;;;1.60;95.40;;;;;;4979705;28;20170;-93
2022/12/08 11:05:32;;;;;;;11.17;10.17;;;1.50;95.40;;;;;;4979338;28;20181;-94
2022/12/08 11:07:57;;;;;;;10.70;9.80;;;1.60;95.30;;;;;;4980026;28;20211;-93
2022/12/08 11:10:35;;;;;;;11.60;10.50;;;1.60;95.40;;;;;;4979758;28;20178;-93
2022/12/08 11:13:05;;;;;;;11.37;10.37;;;1.70;95.30;;;;;;4979516;28;20205;-93
2022/12/08 11:15:36;;;;;;;10.57;9.67;;;1.70;95.30;;;;;;4979055;28;20170;-93
2022/12/08 11:18:21;;;;;;;10.50;9.60;;;1.70;95.30;;;;;;4978503;28;20229;-93
2022/12/08 11:20:59;;;;;;;10.23;9.33;;;1.70;95.30;;;;;;4980137;28;20173;-93
2022/12/08 11:23:26;;;;;;;9.93;8.97;;;1.80;95.40;;;;;;4994699;28;20221;-91
2022/12/08 11:25:55;;;;;;;9.00;8.30;;;1.80;95.30;;;;;;4994674;28;20166;-90
2022/12/08 11:28:23;;;;;;;10.30;9.40;;;1.80;95.30;;;;;;4994536;28;20182;-90
2022/12/08 11:30:58;;;;;;;10.20;9.30;;;1.80;95.30;;;;;;4994579;28;20243;-90
2022/12/08 11:33:26;;;;;;;10.70;9.67;;;1.80;95.30;;;;;;4994618;28;20189;-92
2022/12/08 11:36:03;;;;;;;11.17;10.17;;;1.70;95.30;;;;;;4978631;28;20181;-92
2022/12/08 11:38:31;;;;;;;11.93;10.73;;;1.70;95.30;;;;;;4977863;28;20181;-92
2022/12/08 11:41:12;;;;;;;12.47;11.27;;;1.80;95.30;;;;;;4978894;28;20242;-91
2022/12/08 11:44:34;;;;;;;11.70;10.50;;;1.70;95.20;;;;;;4978132;28;20200;-91
2022/12/08 11:47:23;;;;;;;11.63;10.53;;;1.80;95.30;;;;;;4956979;28;20182;-90
2022/12/08 11:49:55;;;;;;;11.50;10.43;;;1.80;95.30;;;;;;4957066;28;20196;-91
2022/12/08 11:52:32;;;;;;;11.53;10.43;;;1.80;95.30;;;;;;4972994;28;20230;-92
2022/12/08 11:55:28;;;;;;;11.17;10.17;;;1.80;95.20;;;;;;4977235;28;20198;-92
2022/12/08 11:57:57;;;;;;;13.53;12.07;;;1.80;95.20;;;;;;4978656;28;20261;-92
2022/12/08 12:00:23;;;;;;;16.33;11.90;;;1.80;95.20;;;;;;4977370;28;20177;-92
2022/12/08 12:02:57;;;;;;;12.57;11.47;;;1.90;95.20;;;;;;4977314;28;20181;-93
2022/12/08 12:05:40;;;;;;;14.07;12.77;;;1.90;95.20;;;;;;4978120;28;20177;-93
2022/12/08 12:08:20;;;;;;;13.53;12.23;;;1.90;95.20;;;;;;4978432;28;20177;-92
2022/12/08 12:12:11;;;;;;;12.50;11.30;;;2.00;95.10;;;;;;4979541;28;20224;-92
2022/12/08 12:14:38;;;;;;;12.83;11.53;;;2.00;95.00;;;;;;4997360;28;20201;-91
2022/12/08 12:17:22;;;;;;;12.67;11.40;;;1.90;94.90;;;;;;4977939;28;20652;-94
2022/12/08 12:19:52;;;;;;;12.67;11.47;;;1.90;94.90;;;;;;4978084;28;20178;-93
2022/12/08 12:22:21;;;;;;;12.13;10.83;;;1.90;94.90;;;;;;4979630;28;20606;-93
2022/12/08 12:24:50;;;;;;;13.60;12.03;;;1.90;94.90;;;;;;4982607;28;20256;-93
2022/12/08 12:27:43;;;;;;;12.20;11.00;;;2.00;94.80;;;;;;4985252;28;20181;-92
2022/12/08 12:30:19;;;;;;;11.57;10.43;;;2.10;94.80;;;;;;4985804;28;20243;-90
2022/12/08 12:32:52;;;;;;;11.87;10.77;;;2.20;94.80;;;;;;4976419;28;20194;-91
2022/12/08 12:35:51;;;;;;;12.70;11.40;;;2.20;94.80;;;;;;4977259;28;20560;-90
2022/12/08 12:41:29;;;;;;;12.50;11.23;;;2.20;94.60;;;;;;4994471;28;20209;-89
2022/12/08 12:44:23;;;;;;;13.20;11.40;;;2.30;94.60;;;;;;4993742;28;20203;-89
2022/12/08 12:46:48;;;;;;;12.90;11.73;;;2.20;94.50;;;;;;4976953;28;20184;-91
2022/12/08 12:49:39;;;;;;;14.07;10.57;;;2.20;94.50;;;;;;4976378;28;20182;-91
2022/12/08 12:52:22;;;;;;;10.80;9.93;;;2.20;94.50;;;;;;4976237;28;20218;-90
2022/12/08 12:54:51;;;;;;;11.27;10.27;;;2.20;94.40;;;;;;4977516;28;20565;-90
2022/12/08 12:57:17;;;;;;;12.70;11.40;;;2.10;94.40;;;;;;4976783;28;20201;-91
2022/12/08 12:59:51;;;;;;;12.20;11.10;;;2.20;94.50;;;;;;4976749;28;20213;-92
2022/12/08 13:02:27;;;;;;;12.67;11.57;;;2.20;94.50;;;;;;4977028;28;20183;-91
2022/12/08 13:04:58;;;;;;;12.90;11.50;;;2.30;94.50;;;;;;4977112;28;20289;-92
2022/12/08 13:07:51;;;;;;;12.07;11.07;;;2.30;94.50;;;;;;4976938;28;20182;-91
2022/12/08 13:10:37;;;;;;;12.07;10.50;;;2.30;94.50;;;;;;4978619;28;20182;-92